sensor_id;sensor_type;location;lat;lon;timestamp;pressure;altitude;pressure_sealevel;temperature;humidity
73429;BME280;61643;49.564;17.412;2023-03-04T00:01:42;98419.13;;;-4.14;98.76
73429;BME280;61643;49.564;17.412;2023-03-04T00:04:08;98409.91;;;-4.18;98.79
73429;BME280;61643;49.564;17.412;2023-03-04T00:06:34;98414.00;;;-4.15;99.29
73429;BME280;61643;49.564;17.412;2023-03-04T00:09:00;98409.94;;;-4.10;98.49
73429;BME280;61643;49.564;17.412;2023-03-04T00:11:29;98409.44;;;-4.05;98.81
73429;BME280;61643;49.564;17.412;2023-03-04T00:13:55;98402.91;;;-3.93;98.08
73429;BME280;61643;49.564;17.412;2023-03-04T00:16:22;98400.09;;;-4.00;97.92
73429;BME280;61643;49.564;17.412;2023-03-04T00:18:48;98401.91;;;-4.00;96.72
73429;BME280;61643;49.564;17.412;2023-03-04T00:21:14;98400.44;;;-3.94;96.99
73429;BME280;61643;49.564;17.412;2023-03-04T00:23:40;98397.47;;;-4.00;96.24
73429;BME280;61643;49.564;17.412;2023-03-04T00:26:06;98390.72;;;-4.10;95.48
73429;BME280;61643;49.564;17.412;2023-03-04T00:28:36;98391.34;;;-4.16;95.62
73429;BME280;61643;49.564;17.412;2023-03-04T00:31:04;98398.84;;;-4.29;95.72
73429;BME280;61643;49.564;17.412;2023-03-04T00:33:30;98388.94;;;-4.43;97.09
73429;BME280;61643;49.564;17.412;2023-03-04T00:35:56;98384.81;;;-4.54;97.99
73429;BME280;61643;49.564;17.412;2023-03-04T00:38:22;98380.72;;;-4.49;97.78
73429;BME280;61643;49.564;17.412;2023-03-04T00:40:48;98380.09;;;-4.42;97.51
73429;BME280;61643;49.564;17.412;2023-03-04T00:43:14;98375.50;;;-4.40;97.94
73429;BME280;61643;49.564;17.412;2023-03-04T00:45:40;98372.22;;;-4.42;98.01
73429;BME280;61643;49.564;17.412;2023-03-04T00:48:06;98364.47;;;-4.44;97.52
73429;BME280;61643;49.564;17.412;2023-03-04T00:50:32;98368.25;;;-4.47;97.62
73429;BME280;61643;49.564;17.412;2023-03-04T00:52:58;98356.78;;;-4.37;97.15
73429;BME280;61643;49.564;17.412;2023-03-04T00:55:24;98362.50;;;-4.50;97.49
73429;BME280;61643;49.564;17.412;2023-03-04T00:57:50;98360.06;;;-4.43;97.82
73429;BME280;61643;49.564;17.412;2023-03-04T01:00:16;98347.56;;;-4.50;98.27
73429;BME280;61643;49.564;17.412;2023-03-04T01:02:42;98342.81;;;-4.46;97.67
73429;BME280;61643;49.564;17.412;2023-03-04T01:05:09;98350.50;;;-4.44;97.88
73429;BME280;61643;49.564;17.412;2023-03-04T01:07:35;98355.63;;;-4.43;97.06
73429;BME280;61643;49.564;17.412;2023-03-04T01:10:01;98337.88;;;-4.41;97.07
73429;BME280;61643;49.564;17.412;2023-03-04T01:12:27;98337.56;;;-4.46;96.09
73429;BME280;61643;49.564;17.412;2023-03-04T01:14:53;98345.88;;;-4.59;96.74
73429;BME280;61643;49.564;17.412;2023-03-04T01:17:19;98340.63;;;-4.59;97.33
73429;BME280;61643;49.564;17.412;2023-03-04T01:19:45;98342.47;;;-4.51;96.77
73429;BME280;61643;49.564;17.412;2023-03-04T01:22:12;98340.66;;;-4.51;95.48
73429;BME280;61643;49.564;17.412;2023-03-04T01:24:39;98333.56;;;-4.58;96.00
73429;BME280;61643;49.564;17.412;2023-03-04T01:27:05;98329.88;;;-4.81;96.50
73429;BME280;61643;49.564;17.412;2023-03-04T01:29:31;98330.66;;;-4.89;96.97
73429;BME280;61643;49.564;17.412;2023-03-04T01:31:57;98329.06;;;-4.82;96.60
73429;BME280;61643;49.564;17.412;2023-03-04T01:34:23;98328.59;;;-4.69;96.52
73429;BME280;61643;49.564;17.412;2023-03-04T01:36:49;98314.03;;;-4.64;96.36
73429;BME280;61643;49.564;17.412;2023-03-04T01:39:15;98315.31;;;-4.68;96.77
73429;BME280;61643;49.564;17.412;2023-03-04T01:41:41;98313.41;;;-4.50;96.37
73429;BME280;61643;49.564;17.412;2023-03-04T01:44:08;98311.13;;;-4.44;96.38
73429;BME280;61643;49.564;17.412;2023-03-04T01:46:35;98314.94;;;-4.39;96.27
73429;BME280;61643;49.564;17.412;2023-03-04T01:49:02;98315.94;;;-4.32;96.08
73429;BME280;61643;49.564;17.412;2023-03-04T01:51:28;98309.88;;;-4.24;96.72
73429;BME280;61643;49.564;17.412;2023-03-04T01:53:54;98308.91;;;-4.23;97.59
73429;BME280;61643;49.564;17.412;2023-03-04T01:56:27;98304.16;;;-4.04;97.35
73429;BME280;61643;49.564;17.412;2023-03-04T01:59:14;98308.13;;;-3.91;96.97
73429;BME280;61643;49.564;17.412;2023-03-04T02:01:49;98298.75;;;-3.86;97.64
73429;BME280;61643;49.564;17.412;2023-03-04T02:04:17;98289.38;;;-3.72;97.17
73429;BME280;61643;49.564;17.412;2023-03-04T02:06:45;98291.16;;;-3.65;96.74
73429;BME280;61643;49.564;17.412;2023-03-04T02:09:13;98277.22;;;-3.73;99.12
73429;BME280;61643;49.564;17.412;2023-03-04T02:11:40;98284.59;;;-3.53;97.37
73429;BME280;61643;49.564;17.412;2023-03-04T02:14:07;98288.53;;;-3.40;97.44
73429;BME280;61643;49.564;17.412;2023-03-04T02:16:34;98287.22;;;-3.36;97.06
73429;BME280;61643;49.564;17.412;2023-03-04T02:19:00;98287.84;;;-3.34;97.37
73429;BME280;61643;49.564;17.412;2023-03-04T02:21:28;98281.63;;;-3.33;98.13
73429;BME280;61643;49.564;17.412;2023-03-04T02:24:21;98281.75;;;-3.27;97.29
73429;BME280;61643;49.564;17.412;2023-03-04T02:26:50;98283.72;;;-3.29;97.87
73429;BME280;61643;49.564;17.412;2023-03-04T02:29:16;98277.00;;;-3.31;97.78
73429;BME280;61643;49.564;17.412;2023-03-04T02:31:44;98275.53;;;-3.26;99.57
73429;BME280;61643;49.564;17.412;2023-03-04T02:34:14;98263.81;;;-3.15;99.29
73429;BME280;61643;49.564;17.412;2023-03-04T02:36:41;98259.03;;;-3.12;99.36
73429;BME280;61643;49.564;17.412;2023-03-04T02:41:49;98255.88;;;-3.07;99.01
73429;BME280;61643;49.564;17.412;2023-03-04T02:44:17;98254.53;;;-3.03;99.05
73429;BME280;61643;49.564;17.412;2023-03-04T02:46:43;98262.91;;;-3.00;98.19
73429;BME280;61643;49.564;17.412;2023-03-04T02:49:09;98251.06;;;-2.95;99.07
73429;BME280;61643;49.564;17.412;2023-03-04T02:51:35;98242.31;;;-2.88;100.00
73429;BME280;61643;49.564;17.412;2023-03-04T02:54:01;98239.66;;;-2.80;100.00
73429;BME280;61643;49.564;17.412;2023-03-04T02:56:27;98235.34;;;-2.81;99.71
73429;BME280;61643;49.564;17.412;2023-03-04T02:58:54;98235.19;;;-2.79;99.54
73429;BME280;61643;49.564;17.412;2023-03-04T03:01:20;98237.13;;;-2.73;100.00
73429;BME280;61643;49.564;17.412;2023-03-04T03:03:46;98238.44;;;-2.69;100.00
73429;BME280;61643;49.564;17.412;2023-03-04T03:06:12;98236.28;;;-2.66;100.00
73429;BME280;61643;49.564;17.412;2023-03-04T03:08:38;98234.59;;;-2.59;100.00
73429;BME280;61643;49.564;17.412;2023-03-04T03:11:04;98229.78;;;-2.55;100.00
73429;BME280;61643;49.564;17.412;2023-03-04T03:13:30;98223.69;;;-2.56;100.00
73429;BME280;61643;49.564;17.412;2023-03-04T03:15:56;98216.47;;;-2.54;100.00
73429;BME280;61643;49.564;17.412;2023-03-04T03:18:22;98221.38;;;-2.51;100.00
73429;BME280;61643;49.564;17.412;2023-03-04T03:20:47;98220.66;;;-2.44;100.00
73429;BME280;61643;49.564;17.412;2023-03-04T03:23:14;98210.00;;;-2.51;100.00
73429;BME280;61643;49.564;17.412;2023-03-04T03:25:39;98208.56;;;-2.54;100.00
73429;BME280;61643;49.564;17.412;2023-03-04T03:28:05;98213.63;;;-2.52;100.00
73429;BME280;61643;49.564;17.412;2023-03-04T03:30:32;98211.66;;;-2.50;100.00
73429;BME280;61643;49.564;17.412;2023-03-04T03:32:57;98210.47;;;-2.47;100.00
73429;BME280;61643;49.564;17.412;2023-03-04T03:35:24;98202.63;;;-2.56;100.00
73429;BME280;61643;49.564;17.412;2023-03-04T03:37:51;98199.16;;;-2.56;100.00
73429;BME280;61643;49.564;17.412;2023-03-04T03:40:17;98204.84;;;-2.44;100.00
73429;BME280;61643;49.564;17.412;2023-03-04T03:42:43;98194.16;;;-2.43;100.00
73429;BME280;61643;49.564;17.412;2023-03-04T03:45:09;98192.09;;;-2.33;100.00
73429;BME280;61643;49.564;17.412;2023-03-04T03:47:35;98186.16;;;-2.35;100.00
73429;BME280;61643;49.564;17.412;2023-03-04T03:50:02;98184.72;;;-2.37;100.00
73429;BME280;61643;49.564;17.412;2023-03-04T03:52:28;98190.00;;;-2.37;100.00
73429;BME280;61643;49.564;17.412;2023-03-04T03:54:54;98176.91;;;-2.31;100.00
73429;BME280;61643;49.564;17.412;2023-03-04T03:57:20;98186.13;;;-2.27;100.00
73429;BME280;61643;49.564;17.412;2023-03-04T03:59:46;98184.59;;;-2.21;100.00
73429;BME280;61643;49.564;17.412;2023-03-04T04:02:12;98182.97;;;-2.22;100.00
73429;BME280;61643;49.564;17.412;2023-03-04T04:04:38;98179.34;;;-2.21;100.00
73429;BME280;61643;49.564;17.412;2023-03-04T04:07:04;98176.25;;;-2.25;100.00
73429;BME280;61643;49.564;17.412;2023-03-04T04:09:30;98178.22;;;-2.27;100.00
73429;BME280;61643;49.564;17.412;2023-03-04T04:11:56;98180.94;;;-2.20;100.00
73429;BME280;61643;49.564;17.412;2023-03-04T04:14:22;98175.56;;;-2.27;100.00
73429;BME280;61643;49.564;17.412;2023-03-04T04:16:48;98177.22;;;-2.26;100.00
73429;BME280;61643;49.564;17.412;2023-03-04T04:19:19;98167.16;;;-2.22;100.00
73429;BME280;61643;49.564;17.412;2023-03-04T04:21:46;98166.78;;;-2.19;100.00
73429;BME280;61643;49.564;17.412;2023-03-04T04:24:12;98169.66;;;-2.29;100.00
73429;BME280;61643;49.564;17.412;2023-03-04T04:26:38;98156.31;;;-2.27;100.00
73429;BME280;61643;49.564;17.412;2023-03-04T04:29:05;98167.31;;;-2.24;100.00
73429;BME280;61643;49.564;17.412;2023-03-04T04:31:31;98165.13;;;-2.20;100.00
73429;BME280;61643;49.564;17.412;2023-03-04T04:33:57;98172.25;;;-2.21;100.00
73429;BME280;61643;49.564;17.412;2023-03-04T04:36:23;98168.06;;;-2.15;100.00
73429;BME280;61643;49.564;17.412;2023-03-04T04:38:49;98166.44;;;-2.16;100.00
73429;BME280;61643;49.564;17.412;2023-03-04T04:41:26;98167.59;;;-2.19;100.00
73429;BME280;61643;49.564;17.412;2023-03-04T04:43:53;98163.16;;;-2.18;100.00
73429;BME280;61643;49.564;17.412;2023-03-04T04:46:19;98168.19;;;-2.09;100.00
73429;BME280;61643;49.564;17.412;2023-03-04T04:48:46;98157.38;;;-2.14;100.00
73429;BME280;61643;49.564;17.412;2023-03-04T04:51:12;98155.06;;;-2.17;100.00
73429;BME280;61643;49.564;17.412;2023-03-04T04:53:38;98162.81;;;-2.15;100.00
73429;BME280;61643;49.564;17.412;2023-03-04T04:56:09;98160.53;;;-2.18;100.00
73429;BME280;61643;49.564;17.412;2023-03-04T04:58:36;98153.59;;;-2.19;100.00
73429;BME280;61643;49.564;17.412;2023-03-04T05:01:03;98172.16;;;-2.13;100.00
73429;BME280;61643;49.564;17.412;2023-03-04T05:03:30;98161.16;;;-2.16;100.00
73429;BME280;61643;49.564;17.412;2023-03-04T05:05:56;98158.97;;;-2.13;100.00
73429;BME280;61643;49.564;17.412;2023-03-04T05:08:22;98159.09;;;-2.06;100.00
73429;BME280;61643;49.564;17.412;2023-03-04T05:10:51;98154.81;;;-2.07;100.00
73429;BME280;61643;49.564;17.412;2023-03-04T05:13:17;98162.00;;;-2.01;100.00
73429;BME280;61643;49.564;17.412;2023-03-04T05:15:45;98161.19;;;-2.02;99.88
73429;BME280;61643;49.564;17.412;2023-03-04T05:18:11;98164.28;;;-1.98;99.88
73429;BME280;61643;49.564;17.412;2023-03-04T05:20:37;98169.88;;;-1.93;99.64
73429;BME280;61643;49.564;17.412;2023-03-04T05:23:03;98162.13;;;-1.94;99.70
73429;BME280;61643;49.564;17.412;2023-03-04T05:25:29;98160.19;;;-2.01;100.00
73429;BME280;61643;49.564;17.412;2023-03-04T05:27:55;98167.38;;;-1.94;100.00
73429;BME280;61643;49.564;17.412;2023-03-04T05:30:21;98171.31;;;-1.90;100.00
73429;BME280;61643;49.564;17.412;2023-03-04T05:32:47;98172.31;;;-1.91;100.00
73429;BME280;61643;49.564;17.412;2023-03-04T05:35:13;98174.78;;;-1.90;100.00
73429;BME280;61643;49.564;17.412;2023-03-04T05:37:39;98166.41;;;-1.93;99.46
73429;BME280;61643;49.564;17.412;2023-03-04T05:40:05;98181.75;;;-1.97;99.43
73429;BME280;61643;49.564;17.412;2023-03-04T05:42:31;98170.59;;;-1.99;99.82
73429;BME280;61643;49.564;17.412;2023-03-04T05:44:57;98176.94;;;-1.93;100.00
73429;BME280;61643;49.564;17.412;2023-03-04T05:47:23;98174.66;;;-1.96;100.00
73429;BME280;61643;49.564;17.412;2023-03-04T05:49:50;98181.59;;;-1.95;99.75
73429;BME280;61643;49.564;17.412;2023-03-04T05:52:16;98176.13;;;-1.94;99.94
73429;BME280;61643;49.564;17.412;2023-03-04T05:54:42;98173.50;;;-1.94;100.00
73429;BME280;61643;49.564;17.412;2023-03-04T05:57:08;98177.41;;;-1.90;99.89
73429;BME280;61643;49.564;17.412;2023-03-04T05:59:34;98176.88;;;-1.85;99.94
73429;BME280;61643;49.564;17.412;2023-03-04T06:02:00;98176.97;;;-1.79;99.49
73429;BME280;61643;49.564;17.412;2023-03-04T06:04:26;98180.06;;;-1.75;99.68
73429;BME280;61643;49.564;17.412;2023-03-04T06:06:52;98176.44;;;-1.74;99.48
73429;BME280;61643;49.564;17.412;2023-03-04T06:09:18;98178.44;;;-1.76;99.72
73429;BME280;61643;49.564;17.412;2023-03-04T06:11:45;98182.88;;;-1.77;99.44
73429;BME280;61643;49.564;17.412;2023-03-04T06:14:11;98184.06;;;-1.79;99.80
73429;BME280;61643;49.564;17.412;2023-03-04T06:16:37;98181.97;;;-1.84;99.48
73429;BME280;61643;49.564;17.412;2023-03-04T06:19:03;98179.16;;;-1.82;99.45
73429;BME280;61643;49.564;17.412;2023-03-04T06:21:29;98182.88;;;-1.77;100.00
73429;BME280;61643;49.564;17.412;2023-03-04T06:23:55;98189.28;;;-1.71;99.44
73429;BME280;61643;49.564;17.412;2023-03-04T06:26:21;98189.44;;;-1.73;100.00
73429;BME280;61643;49.564;17.412;2023-03-04T06:28:47;98190.47;;;-1.74;99.35
73429;BME280;61643;49.564;17.412;2023-03-04T06:31:13;98193.25;;;-1.75;99.91
73429;BME280;61643;49.564;17.412;2023-03-04T06:33:39;98195.19;;;-1.69;100.00
73429;BME280;61643;49.564;17.412;2023-03-04T06:36:05;98197.19;;;-1.71;98.57
73429;BME280;61643;49.564;17.412;2023-03-04T06:38:31;98192.28;;;-1.74;99.04
73429;BME280;61643;49.564;17.412;2023-03-04T06:41:05;98198.94;;;-1.64;99.01
73429;BME280;61643;49.564;17.412;2023-03-04T06:43:31;98207.31;;;-1.60;98.75
73429;BME280;61643;49.564;17.412;2023-03-04T06:45:57;98201.00;;;-1.59;97.55
73429;BME280;61643;49.564;17.412;2023-03-04T06:48:23;98201.84;;;-1.59;97.08
73429;BME280;61643;49.564;17.412;2023-03-04T06:50:49;98200.56;;;-1.63;96.53
73429;BME280;61643;49.564;17.412;2023-03-04T06:53:15;98201.66;;;-1.57;97.14
73429;BME280;61643;49.564;17.412;2023-03-04T06:55:41;98194.22;;;-1.54;96.26
73429;BME280;61643;49.564;17.412;2023-03-04T06:58:07;98193.84;;;-1.51;95.82
73429;BME280;61643;49.564;17.412;2023-03-04T07:00:33;98192.03;;;-1.50;95.33
73429;BME280;61643;49.564;17.412;2023-03-04T07:02:59;98199.94;;;-1.50;95.31
73429;BME280;61643;49.564;17.412;2023-03-04T07:05:25;98202.22;;;-1.47;95.39
73429;BME280;61643;49.564;17.412;2023-03-04T07:07:52;98204.13;;;-1.41;95.54
73429;BME280;61643;49.564;17.412;2023-03-04T07:10:19;98212.78;;;-1.32;96.19
73429;BME280;61643;49.564;17.412;2023-03-04T07:12:45;98205.41;;;-1.22;95.77
73429;BME280;61643;49.564;17.412;2023-03-04T07:15:11;98206.50;;;-1.31;94.83
73429;BME280;61643;49.564;17.412;2023-03-04T07:17:37;98208.25;;;-1.24;95.21
73429;BME280;61643;49.564;17.412;2023-03-04T07:20:03;98214.16;;;-1.22;95.43
73429;BME280;61643;49.564;17.412;2023-03-04T07:22:29;98210.50;;;-1.21;94.30
73429;BME280;61643;49.564;17.412;2023-03-04T07:24:55;98219.81;;;-1.10;94.62
73429;BME280;61643;49.564;17.412;2023-03-04T07:27:21;98215.78;;;-1.06;94.06
73429;BME280;61643;49.564;17.412;2023-03-04T07:29:47;98212.50;;;-1.08;93.51
73429;BME280;61643;49.564;17.412;2023-03-04T07:32:13;98216.41;;;-1.04;93.09
73429;BME280;61643;49.564;17.412;2023-03-04T07:34:39;98216.50;;;-0.98;93.55
73429;BME280;61643;49.564;17.412;2023-03-04T07:37:05;98219.50;;;-0.86;92.74
73429;BME280;61643;49.564;17.412;2023-03-04T07:39:31;98213.84;;;-0.83;91.75
73429;BME280;61643;49.564;17.412;2023-03-04T07:41:57;98206.56;;;-0.81;92.43
73429;BME280;61643;49.564;17.412;2023-03-04T07:44:23;98203.09;;;-0.81;91.43
73429;BME280;61643;49.564;17.412;2023-03-04T07:46:49;98189.13;;;-0.75;91.76
73429;BME280;61643;49.564;17.412;2023-03-04T07:49:15;98200.84;;;-0.84;91.84
73429;BME280;61643;49.564;17.412;2023-03-04T07:51:41;98193.72;;;-0.84;92.05
73429;BME280;61643;49.564;17.412;2023-03-04T07:54:07;98199.72;;;-0.90;92.10
73429;BME280;61643;49.564;17.412;2023-03-04T07:56:33;98190.63;;;-0.87;92.70
73429;BME280;61643;49.564;17.412;2023-03-04T07:58:59;98188.44;;;-0.84;92.24
73429;BME280;61643;49.564;17.412;2023-03-04T08:01:28;98193.97;;;-0.79;92.80
73429;BME280;61643;49.564;17.412;2023-03-04T08:03:56;98199.16;;;-0.71;92.17
73429;BME280;61643;49.564;17.412;2023-03-04T08:06:23;98197.97;;;-0.68;92.21
73429;BME280;61643;49.564;17.412;2023-03-04T08:08:55;98197.84;;;-0.60;91.81
73429;BME280;61643;49.564;17.412;2023-03-04T08:11:21;98195.75;;;-0.65;91.49
73429;BME280;61643;49.564;17.412;2023-03-04T08:13:49;98201.63;;;-0.69;91.73
73429;BME280;61643;49.564;17.412;2023-03-04T08:16:17;98202.41;;;-0.69;92.07
73429;BME280;61643;49.564;17.412;2023-03-04T08:18:45;98201.50;;;-0.61;91.18
73429;BME280;61643;49.564;17.412;2023-03-04T08:21:13;98195.88;;;-0.58;90.31
73429;BME280;61643;49.564;17.412;2023-03-04T08:23:40;98202.03;;;-0.51;90.07
73429;BME280;61643;49.564;17.412;2023-03-04T08:26:12;98200.63;;;-0.47;90.15
73429;BME280;61643;49.564;17.412;2023-03-04T08:28:39;98189.50;;;-0.42;89.81
73429;BME280;61643;49.564;17.412;2023-03-04T08:31:05;98197.69;;;-0.37;90.06
73429;BME280;61643;49.564;17.412;2023-03-04T08:33:32;98196.06;;;-0.38;90.22
73429;BME280;61643;49.564;17.412;2023-03-04T08:35:58;98201.78;;;-0.35;90.27
73429;BME280;61643;49.564;17.412;2023-03-04T08:38:24;98196.50;;;-0.35;90.10
73429;BME280;61643;49.564;17.412;2023-03-04T08:40:53;98193.41;;;-0.38;89.88
73429;BME280;61643;49.564;17.412;2023-03-04T08:43:19;98191.66;;;-0.31;89.97
73429;BME280;61643;49.564;17.412;2023-03-04T08:45:45;98190.00;;;-0.32;89.14
73429;BME280;61643;49.564;17.412;2023-03-04T08:48:11;98188.25;;;-0.25;89.56
73429;BME280;61643;49.564;17.412;2023-03-04T08:50:37;98195.00;;;-0.23;88.66
73429;BME280;61643;49.564;17.412;2023-03-04T08:53:03;98184.88;;;-0.19;88.19
73429;BME280;61643;49.564;17.412;2023-03-04T08:55:29;98194.78;;;-0.21;87.44
73429;BME280;61643;49.564;17.412;2023-03-04T08:57:55;98187.31;;;-0.18;87.37
73429;BME280;61643;49.564;17.412;2023-03-04T09:00:21;98185.09;;;-0.14;87.69
73429;BME280;61643;49.564;17.412;2023-03-04T09:02:48;98189.72;;;-0.23;86.47
73429;BME280;61643;49.564;17.412;2023-03-04T09:05:14;98179.31;;;-0.24;86.90
73429;BME280;61643;49.564;17.412;2023-03-04T09:07:40;98195.25;;;-0.18;87.88
73429;BME280;61643;49.564;17.412;2023-03-04T09:10:07;98187.38;;;-0.11;87.49
73429;BME280;61643;49.564;17.412;2023-03-04T09:12:33;98189.81;;;-0.10;87.43
73429;BME280;61643;49.564;17.412;2023-03-04T09:14:59;98188.78;;;-0.15;87.51
73429;BME280;61643;49.564;17.412;2023-03-04T09:17:25;98189.44;;;-0.07;87.22
73429;BME280;61643;49.564;17.412;2023-03-04T09:19:51;98193.78;;;0.01;86.78
73429;BME280;61643;49.564;17.412;2023-03-04T09:22:17;98193.72;;;-0.06;87.01
73429;BME280;61643;49.564;17.412;2023-03-04T09:24:43;98194.56;;;-0.05;87.35
73429;BME280;61643;49.564;17.412;2023-03-04T09:27:08;98201.00;;;0.07;87.69
73429;BME280;61643;49.564;17.412;2023-03-04T09:29:34;98195.63;;;0.00;86.80
73429;BME280;61643;49.564;17.412;2023-03-04T09:32:00;98199.72;;;0.03;87.68
73429;BME280;61643;49.564;17.412;2023-03-04T09:34:26;98206.28;;;0.07;86.44
73429;BME280;61643;49.564;17.412;2023-03-04T09:36:52;98209.72;;;0.08;85.77
73429;BME280;61643;49.564;17.412;2023-03-04T09:39:18;98207.75;;;0.16;85.88
73429;BME280;61643;49.564;17.412;2023-03-04T09:41:47;98212.94;;;0.24;85.56
73429;BME280;61643;49.564;17.412;2023-03-04T09:46:50;98213.75;;;0.25;85.79
73429;BME280;61643;49.564;17.412;2023-03-04T09:49:19;98212.88;;;0.18;86.16
73429;BME280;61643;49.564;17.412;2023-03-04T09:52:09;98222.44;;;0.19;85.47
73429;BME280;61643;49.564;17.412;2023-03-04T10:00:17;98210.72;;;0.28;85.66
73429;BME280;61643;49.564;17.412;2023-03-04T10:05:17;98213.31;;;0.21;85.27
73429;BME280;61643;49.564;17.412;2023-03-04T10:07:49;98209.81;;;0.14;85.05
73429;BME280;61643;49.564;17.412;2023-03-04T10:10:33;98213.38;;;0.07;84.63
73429;BME280;61643;49.564;17.412;2023-03-04T10:13:01;98208.03;;;0.21;85.54
73429;BME280;61643;49.564;17.412;2023-03-04T10:15:35;98202.34;;;0.24;85.01
73429;BME280;61643;49.564;17.412;2023-03-04T10:20:47;98194.50;;;0.37;84.63
73429;BME280;61643;49.564;17.412;2023-03-04T10:23:20;98187.38;;;0.38;84.29
73429;BME280;61643;49.564;17.412;2023-03-04T10:25:47;98197.13;;;0.37;83.76
73429;BME280;61643;49.564;17.412;2023-03-04T10:28:31;98189.19;;;0.37;84.19
73429;BME280;61643;49.564;17.412;2023-03-04T10:33:36;98190.34;;;0.56;84.59
73429;BME280;61643;49.564;17.412;2023-03-04T10:41:30;98177.34;;;0.61;84.47
73429;BME280;61643;49.564;17.412;2023-03-04T10:46:41;98175.69;;;0.54;84.17
73429;BME280;61643;49.564;17.412;2023-03-04T10:49:13;98174.50;;;0.63;83.17
73429;BME280;61643;49.564;17.412;2023-03-04T10:55:02;98174.31;;;0.64;83.65
73429;BME280;61643;49.564;17.412;2023-03-04T10:57:04;98173.69;;;0.62;83.59
73429;BME280;61643;49.564;17.412;2023-03-04T10:59:38;98183.09;;;0.65;84.65
73429;BME280;61643;49.564;17.412;2023-03-04T11:15:48;98177.00;;;0.71;84.09
73429;BME280;61643;49.564;17.412;2023-03-04T11:18:16;98173.50;;;0.64;83.70
73429;BME280;61643;49.564;17.412;2023-03-04T11:20:45;98169.19;;;0.63;83.38
73429;BME280;61643;49.564;17.412;2023-03-04T11:23:16;98163.94;;;0.69;83.10
73429;BME280;61643;49.564;17.412;2023-03-04T11:25:48;98160.66;;;0.61;83.67
73429;BME280;61643;49.564;17.412;2023-03-04T11:28:21;98159.44;;;0.63;84.03
73429;BME280;61643;49.564;17.412;2023-03-04T11:30:59;98161.50;;;0.68;84.22
73429;BME280;61643;49.564;17.412;2023-03-04T11:36:20;98146.25;;;0.76;83.34
73429;BME280;61643;49.564;17.412;2023-03-04T11:38:50;98154.19;;;0.76;82.63
73429;BME280;61643;49.564;17.412;2023-03-04T11:43:57;98149.38;;;0.86;83.15
73429;BME280;61643;49.564;17.412;2023-03-04T11:46:34;98142.63;;;0.84;82.58
73429;BME280;61643;49.564;17.412;2023-03-04T11:52:12;98123.34;;;1.03;82.70
73429;BME280;61643;49.564;17.412;2023-03-04T11:56:52;98116.00;;;1.05;81.90
73429;BME280;61643;49.564;17.412;2023-03-04T12:00:11;98120.09;;;1.01;81.90
73429;BME280;61643;49.564;17.412;2023-03-04T12:02:20;98115.97;;;0.98;83.29
73429;BME280;61643;49.564;17.412;2023-03-04T12:10:24;98111.53;;;1.12;83.30
73429;BME280;61643;49.564;17.412;2023-03-04T12:18:18;98108.94;;;1.25;82.47
73429;BME280;61643;49.564;17.412;2023-03-04T12:24:25;98104.63;;;1.11;83.16
73429;BME280;61643;49.564;17.412;2023-03-04T12:29:59;98098.94;;;1.21;83.33
73429;BME280;61643;49.564;17.412;2023-03-04T12:35:36;98088.75;;;1.24;83.45
73429;BME280;61643;49.564;17.412;2023-03-04T12:38:33;98074.66;;;1.24;83.13
73429;BME280;61643;49.564;17.412;2023-03-04T12:54:38;98080.19;;;1.29;83.65
73429;BME280;61643;49.564;17.412;2023-03-04T12:57:19;98075.91;;;1.34;83.88
73429;BME280;61643;49.564;17.412;2023-03-04T13:07:56;98070.44;;;1.49;83.42
73429;BME280;61643;49.564;17.412;2023-03-04T13:10:24;98069.41;;;1.50;84.09
73429;BME280;61643;49.564;17.412;2023-03-04T13:12:52;98072.06;;;1.50;84.00
73429;BME280;61643;49.564;17.412;2023-03-04T13:15:28;98067.59;;;1.51;83.98
73429;BME280;61643;49.564;17.412;2023-03-04T13:17:56;98059.44;;;1.59;84.00
73429;BME280;61643;49.564;17.412;2023-03-04T13:20:34;98066.97;;;1.62;83.97
73429;BME280;61643;49.564;17.412;2023-03-04T13:38:36;98046.56;;;1.75;84.21
73429;BME280;61643;49.564;17.412;2023-03-04T13:51:23;98036.13;;;2.00;82.94
73429;BME280;61643;49.564;17.412;2023-03-04T13:57:17;98048.75;;;2.24;81.99
73429;BME280;61643;49.564;17.412;2023-03-04T13:59:46;98049.56;;;2.18;81.88
73429;BME280;61643;49.564;17.412;2023-03-04T14:02:19;98041.41;;;2.26;82.26
73429;BME280;61643;49.564;17.412;2023-03-04T14:07:28;98035.22;;;2.39;82.13
73429;BME280;61643;49.564;17.412;2023-03-04T14:12:43;98039.81;;;2.12;82.08
73429;BME280;61643;49.564;17.412;2023-03-04T14:15:23;98035.72;;;2.03;82.45
73429;BME280;61643;49.564;17.412;2023-03-04T14:17:58;98039.22;;;1.84;82.94
73429;BME280;61643;49.564;17.412;2023-03-04T14:22:54;98041.47;;;1.87;83.87
73429;BME280;61643;49.564;17.412;2023-03-04T14:25:26;98040.84;;;1.85;83.70
73429;BME280;61643;49.564;17.412;2023-03-04T14:28:13;98040.25;;;1.83;83.87
73429;BME280;61643;49.564;17.412;2023-03-04T14:30:43;98032.47;;;1.81;84.76
73429;BME280;61643;49.564;17.412;2023-03-04T14:33:25;98030.84;;;1.74;84.72
73429;BME280;61643;49.564;17.412;2023-03-04T14:35:54;98029.22;;;1.79;84.63
73429;BME280;61643;49.564;17.412;2023-03-04T14:38:36;98030.06;;;1.73;85.01
73429;BME280;61643;49.564;17.412;2023-03-04T14:43:38;98036.16;;;1.74;84.87
73429;BME280;61643;49.564;17.412;2023-03-04T14:46:07;98020.06;;;1.69;85.11
73429;BME280;61643;49.564;17.412;2023-03-04T14:48:36;98032.72;;;1.73;85.77
73429;BME280;61643;49.564;17.412;2023-03-04T14:51:03;98022.88;;;1.74;85.62
73429;BME280;61643;49.564;17.412;2023-03-04T14:53:31;98021.88;;;1.75;85.92
73429;BME280;61643;49.564;17.412;2023-03-04T14:56:08;98029.22;;;1.73;85.95
73429;BME280;61643;49.564;17.412;2023-03-04T14:58:37;98020.22;;;1.74;85.10
73429;BME280;61643;49.564;17.412;2023-03-04T15:03:33;98022.28;;;1.72;85.25
73429;BME280;61643;49.564;17.412;2023-03-04T15:06:14;98024.94;;;1.72;85.20
73429;BME280;61643;49.564;17.412;2023-03-04T15:08:41;98026.19;;;1.69;85.89
73429;BME280;61643;49.564;17.412;2023-03-04T15:11:07;98029.66;;;1.70;86.12
73429;BME280;61643;49.564;17.412;2023-03-04T15:13:41;98021.06;;;1.68;85.63